Time;durP1;ratioP1;P1;durP2;ratioP2;P2;SDS_P1;SDS_P2;PMS_P1;PMS_P2;Temp;Humidity;BMP_temperature;BMP_pressure;BME280_temperature;BME280_humidity;BME280_pressure;Samples;Min_cycle;Max_cycle;Signal;HPM_P1;HPM_P2
2021/06/17 04:46:02;;;;;;;11.27;6.63;;;17.20;86.10;;;;;;5016828;28;20222;-83
2021/06/17 04:48:33;;;;;;;9.73;5.40;;;17.30;85.70;;;;;;5014820;28;20273;-85
2021/06/17 04:51:00;;;;;;;9.18;5.38;;;17.30;85.40;;;;;;5013404;28;20199;-84
2021/06/17 04:53:30;;;;;;;6.68;5.03;;;17.30;85.40;;;;;;5013516;28;20234;-84
2021/06/17 04:55:57;;;;;;;6.65;5.13;;;17.30;85.50;;;;;;5010782;28;20199;-83
2021/06/17 04:58:25;;;;;;;10.52;5.38;;;17.30;84.50;;;;;;5020101;28;20229;-84
2021/06/17 05:00:52;;;;;;;8.30;5.05;;;17.40;84.10;;;;;;5016103;28;20828;-84
2021/06/17 05:03:22;;;;;;;7.60;5.30;;;17.50;83.30;;;;;;5014176;28;20233;-84
2021/06/17 05:05:52;;;;;;;8.65;5.68;;;17.50;83.20;;;;;;5010660;28;20203;-84
2021/06/17 05:11:03;;;;;;;9.85;5.95;;;17.70;82.70;;;;;;5008876;28;20202;-84
2021/06/17 05:13:32;;;;;;;11.52;5.95;;;17.90;83.30;;;;;;5012787;28;20593;-84
2021/06/17 05:16:00;;;;;;;12.18;5.57;;;17.90;82.00;;;;;;5018127;28;20207;-94
2021/06/17 05:21:30;;;;;;;8.00;5.18;;;18.10;79.50;;;;;;5002007;28;20235;-91
2021/06/17 05:23:57;;;;;;;12.02;5.50;;;18.20;79.50;;;;;;5018109;28;20261;-92
2021/06/17 05:26:24;;;;;;;5.78;4.70;;;18.20;79.50;;;;;;5025943;28;20214;-92
2021/06/17 05:28:51;;;;;;;7.70;4.75;;;18.30;79.60;;;;;;5021863;28;20203;-87
2021/06/17 05:31:19;;;;;;;6.68;4.97;;;18.50;78.10;;;;;;5012643;28;20210;-93
2021/06/17 05:33:59;;;;;;;9.77;5.35;;;18.60;77.30;;;;;;5007541;28;20713;-92
2021/06/17 05:36:26;;;;;;;5.80;4.50;;;18.80;76.80;;;;;;5019784;28;20193;-87
2021/06/17 05:38:55;;;;;;;6.03;4.82;;;18.80;76.40;;;;;;5021872;28;20623;-90
2021/06/17 05:41:22;;;;;;;10.43;5.88;;;19.00;76.10;;;;;;5020855;28;20220;-87
2021/06/17 05:43:49;;;;;;;7.32;4.65;;;19.20;74.70;;;;;;5021611;28;20199;-88
2021/06/17 05:46:16;;;;;;;5.68;4.28;;;19.40;72.60;;;;;;5024122;28;20576;-88
2021/06/17 05:48:43;;;;;;;6.35;4.63;;;19.60;72.00;;;;;;5024268;28;20203;-88
2021/06/17 05:51:13;;;;;;;7.07;3.90;;;19.80;69.90;;;;;;5023928;28;20277;-88
2021/06/17 05:53:40;;;;;;;6.15;4.20;;;19.90;69.30;;;;;;5023534;28;20586;-89
2021/06/17 05:56:10;;;;;;;6.43;4.20;;;20.00;67.60;;;;;;5023209;28;20191;-89
2021/06/17 05:58:43;;;;;;;5.47;4.15;;;20.00;66.40;;;;;;5023469;28;20219;-88
2021/06/17 06:01:10;;;;;;;8.23;4.32;;;20.10;66.20;;;;;;5040735;28;20198;-88
2021/06/17 06:03:37;;;;;;;6.72;4.07;;;20.10;65.50;;;;;;5025216;28;20230;-89
2021/06/17 06:06:04;;;;;;;8.75;4.10;;;20.20;64.60;;;;;;5024451;28;20210;-88
2021/06/17 06:08:35;;;;;;;4.65;4.20;;;20.30;64.70;;;;;;5023491;28;20222;-88
2021/06/17 06:11:02;;;;;;;9.88;4.53;;;20.30;66.00;;;;;;5024303;28;20215;-89
2021/06/17 06:13:34;;;;;;;6.50;4.20;;;20.40;63.90;;;;;;5023467;28;20258;-90
2021/06/17 06:16:12;;;;;;;6.63;4.10;;;20.50;63.30;;;;;;5024133;28;20276;-88
2021/06/17 06:19:06;;;;;;;4.65;4.13;;;20.50;62.10;;;;;;5018276;28;20203;-88
2021/06/17 06:21:33;;;;;;;9.07;4.75;;;20.60;60.80;;;;;;5023481;28;20207;-89
2021/06/17 06:24:01;;;;;;;9.50;4.68;;;20.70;60.00;;;;;;5024438;28;20199;-88
2021/06/17 06:26:33;;;;;;;8.30;4.15;;;20.70;60.40;;;;;;5024747;28;20188;-89
2021/06/17 06:29:00;;;;;;;6.53;4.25;;;20.80;60.30;;;;;;5024291;28;20259;-88
2021/06/17 06:31:27;;;;;;;11.18;5.28;;;21.00;57.60;;;;;;5024052;28;20198;-88
2021/06/17 06:34:37;;;;;;;5.78;4.00;;;21.00;59.00;;;;;;5023349;28;20205;-88
2021/06/17 06:37:04;;;;;;;5.55;4.15;;;21.10;56.90;;;;;;5024059;28;20194;-88
2021/06/17 06:39:33;;;;;;;5.75;3.83;;;21.20;57.00;;;;;;5023743;28;20274;-88
2021/06/17 07:03:12;;;;;;;4.95;4.45;;;22.10;55.10;;;;;;5943714;23;20234;-87
2021/06/17 07:05:39;;;;;;;14.50;4.40;;;22.20;54.20;;;;;;5044596;28;20209;-87
2021/06/17 07:08:10;;;;;;;5.57;4.20;;;22.30;53.10;;;;;;5043454;28;20205;-87
2021/06/17 07:10:37;;;;;;;5.97;4.15;;;22.60;51.30;;;;;;5041805;28;20229;-87
2021/06/17 07:13:05;;;;;;;8.07;4.13;;;23.00;49.50;;;;;;5040923;28;20227;-85
2021/06/17 07:15:31;;;;;;;5.13;4.20;;;23.90;47.60;;;;;;5036775;28;20209;-85
2021/06/17 07:17:58;;;;;;;7.57;4.20;;;26.20;41.10;;;;;;5042319;28;20228;-86
2021/06/17 07:20:27;;;;;;;5.35;3.92;;;28.80;33.60;;;;;;5042404;28;20209;-86
2021/06/17 07:22:56;;;;;;;4.90;4.20;;;31.30;25.70;;;;;;5036232;28;20233;-87
2021/06/17 07:25:23;;;;;;;6.72;4.25;;;32.40;23.30;;;;;;5041443;28;20198;-86
2021/06/17 07:27:51;;;;;;;4.82;3.83;;;31.80;24.30;;;;;;5054623;28;20247;-85
2021/06/17 07:30:19;;;;;;;7.45;4.03;;;30.80;25.20;;;;;;5041460;28;20233;-86
2021/06/17 07:32:46;;;;;;;6.35;4.28;;;29.90;27.40;;;;;;5043671;28;20229;-86
2021/06/17 07:35:14;;;;;;;7.88;4.13;;;28.90;29.90;;;;;;5045178;28;20202;-87
2021/06/17 07:37:44;;;;;;;6.18;3.97;;;27.80;31.90;;;;;;5038314;28;20226;-85
2021/06/17 07:40:13;;;;;;;6.82;4.03;;;27.20;34.50;;;;;;5040740;28;20587;-85
2021/06/17 07:42:40;;;;;;;4.65;4.25;;;26.70;37.30;;;;;;5030929;28;20225;-88
2021/06/17 07:45:09;;;;;;;5.35;4.28;;;26.40;37.10;;;;;;5041943;28;20210;-86
2021/06/17 07:47:36;;;;;;;6.45;4.25;;;26.10;37.00;;;;;;5033398;28;20237;-83
2021/06/17 07:50:05;;;;;;;4.78;3.90;;;26.00;37.80;;;;;;5037495;28;20237;-83
2021/06/17 07:52:32;;;;;;;4.72;4.10;;;25.90;38.70;;;;;;5037026;28;20223;-85
2021/06/17 07:55:00;;;;;;;10.35;4.47;;;25.80;39.00;;;;;;5022819;28;20291;-85
2021/06/17 07:57:34;;;;;;;9.30;4.43;;;25.50;39.30;;;;;;5021153;28;20231;-84
2021/06/17 08:00:00;;;;;;;4.47;4.00;;;25.50;39.60;;;;;;5026546;28;20210;-86
2021/06/17 08:02:29;;;;;;;5.80;4.47;;;25.50;38.70;;;;;;5005471;28;20231;-86
2021/06/17 08:04:55;;;;;;;9.30;4.15;;;25.70;39.30;;;;;;5022097;28;20203;-87
2021/06/17 08:07:22;;;;;;;6.47;3.90;;;26.00;36.80;;;;;;5023722;28;20593;-86
2021/06/17 08:09:49;;;;;;;5.65;3.70;;;26.40;35.90;;;;;;5013466;28;20234;-84
2021/06/17 08:12:17;;;;;;;4.70;3.85;;;26.90;34.70;;;;;;5021517;28;20235;-85
2021/06/17 08:14:44;;;;;;;6.90;3.72;;;27.50;33.20;;;;;;5023060;28;20210;-87
2021/06/17 08:17:11;;;;;;;4.65;3.97;;;28.80;29.70;;;;;;5020774;28;20238;-85
2021/06/17 08:19:38;;;;;;;6.72;4.07;;;30.70;25.40;;;;;;5022334;28;20740;-88
2021/06/17 08:22:07;;;;;;;6.13;4.10;;;31.70;22.20;;;;;;5019363;28;20230;-87
2021/06/17 08:24:37;;;;;;;7.45;4.00;;;34.00;18.60;;;;;;5022015;28;20203;-85
2021/06/17 08:27:04;;;;;;;5.45;4.28;;;36.30;15.80;;;;;;5015116;28;20227;-90
2021/06/17 08:29:33;;;;;;;4.80;4.30;;;37.90;13.20;;;;;;5005224;28;20199;-88
2021/06/17 08:32:00;;;;;;;5.82;5.00;;;38.00;12.50;;;;;;5023069;28;20236;-86
2021/06/17 08:34:26;;;;;;;6.13;4.70;;;39.30;11.60;;;;;;5024378;28;20206;-86
2021/06/17 08:37:00;;;;;;;5.82;5.20;;;39.00;11.40;;;;;;5014164;28;20233;-87
2021/06/17 08:39:28;;;;;;;5.28;4.78;;;38.30;11.10;;;;;;5010144;28;20669;-87
2021/06/17 08:41:55;;;;;;;6.10;5.55;;;38.90;12.20;;;;;;5016162;28;20225;-87
2021/06/17 08:44:22;;;;;;;7.22;5.55;;;38.70;11.40;;;;;;5016635;28;20207;-86
2021/06/17 08:46:51;;;;;;;6.30;5.70;;;40.80;10.10;;;;;;5015603;28;20214;-87
2021/06/17 08:49:19;;;;;;;7.20;5.78;;;37.40;11.50;;;;;;5016216;28;20625;-87
2021/06/17 08:51:48;;;;;;;6.20;5.60;;;38.80;11.40;;;;;;5018612;28;20229;-88
2021/06/17 08:54:19;;;;;;;10.60;6.60;;;41.00;10.90;;;;;;5017427;28;20225;-87
2021/06/17 08:56:48;;;;;;;9.30;6.43;;;41.40;7.20;;;;;;5024497;28;20222;-87
2021/06/17 08:59:15;;;;;;;9.55;6.45;;;41.20;8.30;;;;;;5017522;28;20285;-89
2021/06/17 09:01:42;;;;;;;8.00;6.20;;;41.40;8.00;;;;;;5017125;28;20314;-87
2021/06/17 09:07:52;;;;;;;8.52;7.68;;;42.70;7.50;;;;;;4982617;28;20237;-86
2021/06/17 09:10:19;;;;;;;10.88;7.80;;;42.00;6.80;;;;;;5018630;28;20213;-87
2021/06/17 11:08:38;;;;;;;7.90;5.43;;;38.60;11.30;;;;;;5647982;23;20229;-90
2021/06/17 11:11:07;;;;;;;5.95;4.70;;;36.30;13.80;;;;;;5041287;28;20235;-86
2021/06/17 11:13:35;;;;;;;4.07;3.70;;;35.60;15.50;;;;;;5040089;28;20229;-85
2021/06/17 11:16:05;;;;;;;6.65;4.25;;;35.60;12.30;;;;;;5039261;28;20194;-86
2021/06/17 11:18:58;;;;;;;5.72;4.80;;;35.00;15.30;;;;;;5028243;28;20226;-86
2021/06/17 11:21:43;;;;;;;12.32;9.05;;;34.70;17.40;;;;;;5033288;28;20323;-84
2021/06/17 11:24:43;;;;;;;11.82;10.57;;;34.50;18.80;;;;;;5039047;28;20204;-83
2021/06/17 11:27:32;;;;;;;5.68;4.38;;;34.30;19.90;;;;;;4977241;28;20227;-84
2021/06/17 11:29:59;;;;;;;8.35;4.53;;;34.10;18.70;;;;;;5035931;28;20190;-90
2021/06/17 11:32:32;;;;;;;4.25;3.85;;;34.00;18.60;;;;;;5035663;28;20222;-85
2021/06/17 11:35:00;;;;;;;3.50;3.20;;;33.40;15.70;;;;;;5037812;28;20620;-85
2021/06/17 11:37:31;;;;;;;11.65;3.88;;;33.40;15.50;;;;;;5036945;28;20305;-84
2021/06/17 11:40:19;;;;;;;6.15;3.60;;;33.40;18.30;;;;;;5039883;28;20197;-83
2021/06/17 11:42:46;;;;;;;5.38;4.25;;;33.20;14.90;;;;;;5031961;28;20226;-83
2021/06/17 11:45:14;;;;;;;8.48;4.30;;;33.10;19.10;;;;;;5054490;28;20185;-83
2021/06/17 11:47:48;;;;;;;6.80;4.35;;;33.00;19.80;;;;;;5040454;28;20218;-84
2021/06/17 11:50:16;;;;;;;8.57;4.20;;;32.10;21.20;;;;;;5040227;28;20225;-86
2021/06/17 11:52:45;;;;;;;7.10;4.15;;;32.30;20.00;;;;;;5029271;28;20636;-84
2021/06/17 11:55:12;;;;;;;8.98;4.18;;;32.20;19.50;;;;;;5019385;28;20756;-86
2021/06/17 11:57:40;;;;;;;6.93;4.28;;;31.20;20.20;;;;;;5018313;28;20667;-86
2021/06/17 12:00:10;;;;;;;9.18;4.10;;;31.00;21.10;;;;;;5017409;28;20195;-86
2021/06/17 12:02:39;;;;;;;4.95;3.90;;;31.20;21.90;;;;;;5023961;28;20225;-85
2021/06/17 12:05:09;;;;;;;6.43;3.78;;;31.60;19.70;;;;;;5025083;28;20226;-84
2021/06/17 12:07:37;;;;;;;7.38;3.60;;;31.70;21.40;;;;;;5029057;28;20245;-84
2021/06/17 12:10:15;;;;;;;5.53;3.42;;;31.70;19.40;;;;;;5023791;28;20566;-84
2021/06/17 12:12:48;;;;;;;8.65;3.95;;;31.80;18.30;;;;;;5022354;28;20230;-87
2021/06/17 12:15:17;;;;;;;5.63;3.47;;;31.70;18.60;;;;;;5024729;28;20195;-85
2021/06/17 12:17:46;;;;;;;6.05;3.45;;;31.60;21.10;;;;;;5022878;28;20222;-88
2021/06/17 12:20:16;;;;;;;5.53;3.80;;;31.70;19.40;;;;;;5015359;28;20673;-88
2021/06/17 12:22:45;;;;;;;4.72;3.70;;;31.80;19.20;;;;;;5020146;28;20232;-83
2021/06/17 12:25:13;;;;;;;6.90;3.38;;;32.00;17.60;;;;;;5030031;28;20202;-85
2021/06/17 12:27:44;;;;;;;6.53;3.22;;;31.40;18.40;;;;;;5029572;28;20199;-87
2021/06/17 12:37:20;;;;;;;5.82;3.72;;;31.60;18.80;;;;;;5025373;28;20186;-82
2021/06/17 12:53:48;;;;;;;6.30;3.50;;;31.40;17.30;;;;;;5203570;23;20230;-87
2021/06/17 12:56:16;;;;;;;5.38;3.10;;;31.30;18.90;;;;;;5057179;28;20186;-87
2021/06/17 13:02:34;;;;;;;4.88;3.17;;;31.50;18.90;;;;;;5057367;28;20193;-87
2021/06/17 13:05:02;;;;;;;4.47;3.35;;;31.70;18.30;;;;;;5043271;28;20206;-84
2021/06/17 13:11:30;;;;;;;4.90;3.15;;;31.40;17.30;;;;;;5043408;28;20218;-83
2021/06/17 13:14:02;;;;;;;3.97;3.33;;;31.30;18.70;;;;;;5045978;28;20224;-90
2021/06/17 13:16:31;;;;;;;5.97;3.63;;;31.30;17.30;;;;;;5052623;28;20192;-87
2021/06/17 13:18:58;;;;;;;4.40;3.00;;;31.30;17.50;;;;;;5042484;28;20563;-89
2021/06/17 13:25:43;;;;;;;6.10;3.00;;;31.30;17.70;;;;;;5064531;28;20157;-84
2021/06/17 13:32:17;;;;;;;3.78;3.00;;;31.60;17.40;;;;;;5066577;28;20363;-85
2021/06/17 13:39:00;;;;;;;4.32;3.08;;;31.30;18.00;;;;;;5066236;28;20201;-85
2021/06/17 13:41:27;;;;;;;3.50;3.20;;;31.20;16.40;;;;;;5064914;28;20193;-85
2021/06/17 13:43:54;;;;;;;4.53;2.92;;;31.20;17.20;;;;;;5064956;28;20205;-84
2021/06/17 13:50:15;;;;;;;7.75;3.38;;;31.30;17.20;;;;;;5057300;28;20624;-86
2021/06/17 13:52:42;;;;;;;4.53;3.28;;;31.30;17.20;;;;;;5036395;28;20245;-86
2021/06/17 13:55:43;;;;;;;4.90;2.95;;;31.30;17.30;;;;;;5075335;23;20235;-86
2021/06/17 13:58:11;;;;;;;5.93;2.90;;;31.30;17.20;;;;;;5039227;28;20263;-85
2021/06/17 14:00:39;;;;;;;4.35;3.15;;;31.30;17.30;;;;;;5039434;28;20261;-86
2021/06/17 14:03:15;;;;;;;5.25;2.95;;;31.20;17.20;;;;;;5038904;28;20222;-86
2021/06/17 14:05:45;;;;;;;4.55;2.90;;;31.10;17.00;;;;;;5039571;28;20208;-86
2021/06/17 14:08:12;;;;;;;5.25;2.85;;;31.20;17.20;;;;;;5038795;28;20202;-86
2021/06/17 14:10:40;;;;;;;3.35;2.90;;;31.20;17.20;;;;;;5039301;28;20216;-86
2021/06/17 14:13:08;;;;;;;3.58;2.80;;;30.90;17.10;;;;;;5039270;28;20193;-86
2021/06/17 14:15:36;;;;;;;5.53;2.90;;;31.00;17.10;;;;;;5038715;28;20205;-86
2021/06/17 14:18:04;;;;;;;5.78;2.95;;;31.10;17.10;;;;;;5038513;28;20232;-86
2021/06/17 14:20:33;;;;;;;5.90;3.00;;;31.10;17.20;;;;;;5039009;28;20205;-86
2021/06/17 14:23:01;;;;;;;6.45;3.08;;;31.20;17.20;;;;;;5038431;28;20233;-86
2021/06/17 14:25:28;;;;;;;3.38;2.97;;;31.20;17.20;;;;;;5038239;28;20202;-86
2021/06/17 14:27:55;;;;;;;5.28;3.10;;;31.10;17.20;;;;;;5037682;28;20238;-86
2021/06/17 14:30:23;;;;;;;4.20;3.38;;;31.30;17.30;;;;;;5038071;28;20699;-86
2021/06/17 14:32:51;;;;;;;5.57;3.25;;;31.30;17.30;;;;;;5037396;28;20240;-86
2021/06/17 14:35:18;;;;;;;3.92;2.90;;;31.20;17.30;;;;;;5038676;28;20206;-87
2021/06/17 14:37:50;;;;;;;3.60;2.85;;;31.00;17.10;;;;;;5038007;28;20238;-86
2021/06/17 14:43:42;;;;;;;3.35;2.92;;;31.10;17.10;;;;;;5041495;28;20209;-86
2021/06/17 14:46:17;;;;;;;5.95;2.90;;;30.90;17.10;;;;;;5039305;28;20244;-84
2021/06/17 14:48:54;;;;;;;4.93;3.00;;;31.00;17.10;;;;;;5040827;28;20201;-85
2021/06/17 14:51:22;;;;;;;4.53;3.15;;;30.90;17.10;;;;;;5039109;28;20564;-85
2021/06/17 17:11:14;;;;;;;3.38;3.00;;;28.80;18.90;;;;;;5023438;28;20702;-86
2021/06/17 17:13:41;;;;;;;4.22;3.00;;;28.70;19.00;;;;;;5041280;28;20226;-85
2021/06/17 17:16:08;;;;;;;3.65;2.83;;;28.70;17.90;;;;;;5046505;28;20206;-83
2021/06/17 17:18:35;;;;;;;4.32;2.92;;;28.60;17.80;;;;;;5058641;28;20191;-83
2021/06/17 17:21:02;;;;;;;5.60;3.30;;;28.60;18.00;;;;;;5040828;28;20199;-83
2021/06/17 17:23:29;;;;;;;6.07;2.63;;;28.50;18.80;;;;;;5045138;28;20257;-83
2021/06/17 17:25:56;;;;;;;4.43;2.97;;;28.30;19.00;;;;;;5014616;28;20258;-83
2021/06/17 17:28:25;;;;;;;8.93;3.15;;;28.30;18.60;;;;;;5021725;28;20249;-85
2021/06/17 17:30:52;;;;;;;3.25;2.95;;;28.20;19.00;;;;;;5022407;28;20313;-86
2021/06/17 17:33:19;;;;;;;3.58;3.00;;;28.10;19.60;;;;;;5028336;28;20226;-83
2021/06/17 17:35:51;;;;;;;12.20;3.13;;;28.10;20.30;;;;;;5020591;28;20205;-84
2021/06/17 17:38:19;;;;;;;6.32;3.28;;;28.00;20.30;;;;;;5021023;28;20887;-83
2021/06/17 17:40:46;;;;;;;4.85;2.83;;;27.90;20.60;;;;;;5024873;28;20227;-85
2021/06/17 17:43:13;;;;;;;5.80;3.53;;;27.90;20.50;;;;;;5023758;28;20246;-85
2021/06/17 17:45:42;;;;;;;5.57;3.08;;;28.00;20.40;;;;;;5011146;28;20641;-85
2021/06/17 17:48:09;;;;;;;4.28;3.20;;;28.00;20.70;;;;;;5030414;28;20222;-90
2021/06/17 17:50:36;;;;;;;4.80;3.70;;;27.90;20.90;;;;;;5024487;28;20633;-81
2021/06/17 17:53:03;;;;;;;4.78;3.20;;;27.90;21.20;;;;;;5024185;28;20231;-84
2021/06/17 17:55:30;;;;;;;3.83;3.42;;;27.90;21.50;;;;;;5028565;28;20202;-83
2021/06/17 17:57:57;;;;;;;4.07;3.20;;;27.80;21.90;;;;;;5022977;28;20230;-84
2021/06/17 18:00:26;;;;;;;5.03;3.10;;;27.80;21.40;;;;;;5025806;28;20210;-87
2021/06/17 18:02:55;;;;;;;6.03;3.28;;;27.80;21.80;;;;;;5020894;28;20239;-85
2021/06/17 18:05:22;;;;;;;5.65;3.63;;;27.80;21.70;;;;;;5024343;28;20639;-84
2021/06/17 18:07:50;;;;;;;6.28;3.33;;;27.70;22.10;;;;;;5024041;28;20246;-85
2021/06/17 18:10:18;;;;;;;7.22;3.40;;;27.60;22.70;;;;;;5000369;28;20203;-88
2021/06/17 18:12:45;;;;;;;6.05;3.28;;;27.60;23.40;;;;;;5015274;28;20227;-87
2021/06/17 18:15:15;;;;;;;3.88;3.38;;;27.50;23.50;;;;;;5019557;28;20206;-86
2021/06/17 18:17:43;;;;;;;4.53;3.40;;;27.40;23.70;;;;;;5021694;28;20249;-86
2021/06/17 18:20:12;;;;;;;4.75;3.10;;;27.30;24.00;;;;;;5020515;28;20199;-86
2021/06/17 18:22:39;;;;;;;4.18;3.42;;;27.20;25.00;;;;;;5024416;28;20586;-87
2021/06/17 18:25:06;;;;;;;4.68;3.33;;;26.90;25.50;;;;;;5022135;28;20665;-87
2021/06/17 18:27:36;;;;;;;4.47;3.58;;;26.80;25.60;;;;;;5031408;28;20225;-86
2021/06/17 18:30:04;;;;;;;3.95;3.47;;;26.70;25.60;;;;;;5042234;28;20190;-87
2021/06/17 18:32:31;;;;;;;7.07;4.63;;;26.50;26.20;;;;;;5042435;28;20237;-86
2021/06/17 18:35:32;;;;;;;6.47;3.92;;;26.40;26.60;;;;;;5054395;28;20190;-86
2021/06/17 18:38:01;;;;;;;8.45;4.20;;;26.30;27.20;;;;;;5031951;28;20277;-88
2021/06/17 18:40:28;;;;;;;12.23;10.98;;;26.20;27.40;;;;;;5034574;28;20186;-88
2021/06/17 18:42:58;;;;;;;7.47;3.70;;;26.10;28.20;;;;;;5022131;28;20232;-92
2021/06/17 18:46:20;;;;;;;8.48;3.83;;;26.00;29.10;;;;;;5022863;28;20206;-91
2021/06/17 19:05:37;;;;;;;4.53;3.60;;;25.00;32.10;;;;;;5034009;28;20206;-89
2021/06/17 20:01:20;;;;;;;7.35;5.13;;;23.10;39.20;;;;;;6048666;23;20244;-93
2021/06/17 20:06:32;;;;;;;10.00;5.80;;;23.00;40.20;;;;;;5031686;28;20638;-93
2021/06/17 20:44:12;;;;;;;14.65;5.50;;;22.10;43.00;;;;;;5038567;28;20191;-92
